sensor_id;sensor_type;location;lat;lon;timestamp;pressure;altitude;pressure_sealevel;temperature;humidity
5814;BME280;2933;52.302;8.134;2023-07-13T00:01:13;100336.25;;;17.37;100.00
5814;BME280;2933;52.302;8.134;2023-07-13T00:06:15;100331.63;;;17.39;100.00
5814;BME280;2933;52.302;8.134;2023-07-13T00:11:16;100336.25;;;17.37;100.00
5814;BME280;2933;52.302;8.134;2023-07-13T00:16:19;100347.50;;;17.29;100.00
5814;BME280;2933;52.302;8.134;2023-07-13T00:21:21;100352.25;;;17.16;100.00
5814;BME280;2933;52.302;8.134;2023-07-13T00:26:23;100351.41;;;17.15;100.00
5814;BME280;2933;52.302;8.134;2023-07-13T00:31:26;100345.84;;;17.08;100.00
5814;BME280;2933;52.302;8.134;2023-07-13T00:36:29;100355.56;;;17.18;100.00
5814;BME280;2933;52.302;8.134;2023-07-13T00:41:31;100358.47;;;16.95;100.00
5814;BME280;2933;52.302;8.134;2023-07-13T00:46:34;100352.09;;;16.98;100.00
5814;BME280;2933;52.302;8.134;2023-07-13T00:51:44;100348.44;;;16.79;100.00
5814;BME280;2933;52.302;8.134;2023-07-13T00:56:49;100344.53;;;16.73;100.00
5814;BME280;2933;52.302;8.134;2023-07-13T01:01:53;100348.59;;;16.87;100.00
5814;BME280;2933;52.302;8.134;2023-07-13T01:06:56;100349.38;;;16.58;100.00
5814;BME280;2933;52.302;8.134;2023-07-13T01:11:58;100350.91;;;16.71;100.00
5814;BME280;2933;52.302;8.134;2023-07-13T01:17:01;100354.28;;;16.83;100.00
5814;BME280;2933;52.302;8.134;2023-07-13T01:22:07;100348.72;;;16.76;100.00
5814;BME280;2933;52.302;8.134;2023-07-13T01:27:10;100340.66;;;16.68;100.00
5814;BME280;2933;52.302;8.134;2023-07-13T01:32:15;100339.66;;;16.59;100.00
5814;BME280;2933;52.302;8.134;2023-07-13T01:37:24;100329.91;;;16.30;100.00
5814;BME280;2933;52.302;8.134;2023-07-13T01:42:27;100321.72;;;16.33;100.00
5814;BME280;2933;52.302;8.134;2023-07-13T01:47:29;100320.47;;;16.37;100.00
5814;BME280;2933;52.302;8.134;2023-07-13T01:52:32;100328.94;;;16.41;100.00
5814;BME280;2933;52.302;8.134;2023-07-13T01:57:34;100323.81;;;16.39;100.00
5814;BME280;2933;52.302;8.134;2023-07-13T02:02:35;100331.50;;;16.11;100.00
5814;BME280;2933;52.302;8.134;2023-07-13T02:07:38;100327.88;;;16.12;100.00
5814;BME280;2933;52.302;8.134;2023-07-13T02:12:40;100338.03;;;16.17;100.00
5814;BME280;2933;52.302;8.134;2023-07-13T02:17:42;100334.75;;;16.35;100.00
5814;BME280;2933;52.302;8.134;2023-07-13T02:22:45;100343.03;;;16.20;100.00
5814;BME280;2933;52.302;8.134;2023-07-13T02:27:47;100340.13;;;16.23;100.00
5814;BME280;2933;52.302;8.134;2023-07-13T02:32:48;100328.84;;;16.02;100.00
5814;BME280;2933;52.302;8.134;2023-07-13T02:37:51;100334.28;;;16.20;100.00
5814;BME280;2933;52.302;8.134;2023-07-13T02:42:53;100334.19;;;16.21;100.00
5814;BME280;2933;52.302;8.134;2023-07-13T02:47:54;100334.97;;;16.12;100.00
5814;BME280;2933;52.302;8.134;2023-07-13T02:52:57;100340.22;;;16.12;100.00
5814;BME280;2933;52.302;8.134;2023-07-13T02:57:59;100334.13;;;16.11;100.00
5814;BME280;2933;52.302;8.134;2023-07-13T03:03:01;100336.94;;;16.20;100.00
5814;BME280;2933;52.302;8.134;2023-07-13T03:08:04;100350.25;;;16.18;100.00
5814;BME280;2933;52.302;8.134;2023-07-13T03:13:06;100348.81;;;16.04;100.00
5814;BME280;2933;52.302;8.134;2023-07-13T03:18:08;100340.81;;;16.15;100.00
5814;BME280;2933;52.302;8.134;2023-07-13T03:23:10;100347.41;;;16.00;100.00
5814;BME280;2933;52.302;8.134;2023-07-13T03:28:13;100340.59;;;15.97;100.00
5814;BME280;2933;52.302;8.134;2023-07-13T03:33:15;100350.19;;;16.08;100.00
5814;BME280;2933;52.302;8.134;2023-07-13T03:38:18;100362.22;;;16.01;100.00
5814;BME280;2933;52.302;8.134;2023-07-13T03:43:20;100355.31;;;16.00;100.00
5814;BME280;2933;52.302;8.134;2023-07-13T03:48:21;100361.03;;;16.05;100.00
5814;BME280;2933;52.302;8.134;2023-07-13T03:53:24;100365.38;;;15.95;100.00
5814;BME280;2933;52.302;8.134;2023-07-13T03:58:31;100360.00;;;15.75;100.00
5814;BME280;2933;52.302;8.134;2023-07-13T04:03:33;100372.84;;;15.90;100.00
5814;BME280;2933;52.302;8.134;2023-07-13T04:08:36;100372.78;;;15.80;100.00
5814;BME280;2933;52.302;8.134;2023-07-13T04:13:38;100374.53;;;15.91;100.00
5814;BME280;2933;52.302;8.134;2023-07-13T04:18:39;100376.13;;;16.03;100.00
5814;BME280;2933;52.302;8.134;2023-07-13T04:23:42;100385.06;;;15.91;100.00
5814;BME280;2933;52.302;8.134;2023-07-13T04:28:44;100391.22;;;16.01;100.00
5814;BME280;2933;52.302;8.134;2023-07-13T04:33:45;100380.56;;;15.81;100.00
5814;BME280;2933;52.302;8.134;2023-07-13T04:38:48;100384.81;;;15.94;100.00
5814;BME280;2933;52.302;8.134;2023-07-13T04:43:50;100394.13;;;15.98;100.00
5814;BME280;2933;52.302;8.134;2023-07-13T04:48:51;100384.09;;;15.92;100.00
5814;BME280;2933;52.302;8.134;2023-07-13T04:53:54;100391.88;;;15.93;100.00
5814;BME280;2933;52.302;8.134;2023-07-13T04:58:56;100387.25;;;15.86;100.00
5814;BME280;2933;52.302;8.134;2023-07-13T05:03:58;100396.22;;;16.04;100.00
5814;BME280;2933;52.302;8.134;2023-07-13T05:09:01;100404.75;;;15.87;100.00
5814;BME280;2933;52.302;8.134;2023-07-13T05:14:03;100414.50;;;15.96;100.00
5814;BME280;2933;52.302;8.134;2023-07-13T05:19:04;100412.44;;;15.99;100.00
5814;BME280;2933;52.302;8.134;2023-07-13T05:24:07;100406.69;;;16.15;100.00
5814;BME280;2933;52.302;8.134;2023-07-13T05:29:09;100410.63;;;16.31;100.00
5814;BME280;2933;52.302;8.134;2023-07-13T05:34:11;100403.72;;;16.40;100.00
5814;BME280;2933;52.302;8.134;2023-07-13T05:39:13;100420.84;;;16.55;100.00
5814;BME280;2933;52.302;8.134;2023-07-13T05:44:15;100415.97;;;16.51;100.00
5814;BME280;2933;52.302;8.134;2023-07-13T05:49:17;100424.47;;;16.64;100.00
5814;BME280;2933;52.302;8.134;2023-07-13T05:54:19;100428.25;;;16.71;100.00
5814;BME280;2933;52.302;8.134;2023-07-13T05:59:21;100438.53;;;16.34;100.00
5814;BME280;2933;52.302;8.134;2023-07-13T06:04:22;100436.13;;;16.21;100.00
5814;BME280;2933;52.302;8.134;2023-07-13T06:09:25;100445.47;;;16.35;100.00
5814;BME280;2933;52.302;8.134;2023-07-13T06:14:27;100445.25;;;16.17;100.00
5814;BME280;2933;52.302;8.134;2023-07-13T06:19:28;100457.63;;;16.26;100.00
5814;BME280;2933;52.302;8.134;2023-07-13T06:24:32;100444.00;;;16.52;100.00
5814;BME280;2933;52.302;8.134;2023-07-13T06:29:33;100453.78;;;16.61;100.00
5814;BME280;2933;52.302;8.134;2023-07-13T06:34:35;100453.31;;;16.56;100.00
5814;BME280;2933;52.302;8.134;2023-07-13T06:39:37;100461.16;;;16.77;100.00
5814;BME280;2933;52.302;8.134;2023-07-13T06:44:39;100468.78;;;17.11;100.00
5814;BME280;2933;52.302;8.134;2023-07-13T06:49:40;100470.78;;;16.88;100.00
5814;BME280;2933;52.302;8.134;2023-07-13T06:54:44;100460.47;;;17.16;100.00
5814;BME280;2933;52.302;8.134;2023-07-13T06:59:45;100473.16;;;16.91;100.00
5814;BME280;2933;52.302;8.134;2023-07-13T07:04:47;100481.03;;;17.12;100.00
5814;BME280;2933;52.302;8.134;2023-07-13T07:09:50;100480.63;;;17.36;100.00
5814;BME280;2933;52.302;8.134;2023-07-13T07:14:51;100485.06;;;17.75;100.00
5814;BME280;2933;52.302;8.134;2023-07-13T07:19:53;100489.81;;;17.42;100.00
5814;BME280;2933;52.302;8.134;2023-07-13T07:24:56;100487.28;;;17.60;100.00
5814;BME280;2933;52.302;8.134;2023-07-13T07:29:58;100493.13;;;18.13;100.00
5814;BME280;2933;52.302;8.134;2023-07-13T07:35:00;100495.66;;;18.42;100.00
5814;BME280;2933;52.302;8.134;2023-07-13T07:40:03;100504.53;;;18.51;100.00
5814;BME280;2933;52.302;8.134;2023-07-13T07:45:06;100505.97;;;18.45;100.00
5814;BME280;2933;52.302;8.134;2023-07-13T07:50:08;100497.41;;;18.89;100.00
5814;BME280;2933;52.302;8.134;2023-07-13T07:55:11;100491.44;;;18.59;100.00
5814;BME280;2933;52.302;8.134;2023-07-13T08:00:15;100494.94;;;18.87;99.92
5814;BME280;2933;52.302;8.134;2023-07-13T08:05:17;100501.59;;;19.37;96.91
5814;BME280;2933;52.302;8.134;2023-07-13T08:10:20;100499.41;;;18.77;97.11
5814;BME280;2933;52.302;8.134;2023-07-13T08:15:22;100497.91;;;19.48;100.00
5814;BME280;2933;52.302;8.134;2023-07-13T08:20:23;100498.97;;;19.37;92.77
5814;BME280;2933;52.302;8.134;2023-07-13T08:25:26;100504.56;;;19.52;91.79
5814;BME280;2933;52.302;8.134;2023-07-13T08:30:28;100501.59;;;19.37;90.59
5814;BME280;2933;52.302;8.134;2023-07-13T08:35:29;100501.38;;;19.67;89.82
5814;BME280;2933;52.302;8.134;2023-07-13T08:40:34;100506.75;;;19.75;87.88
5814;BME280;2933;52.302;8.134;2023-07-13T08:45:41;100491.47;;;19.51;89.07
5814;BME280;2933;52.302;8.134;2023-07-13T08:50:49;100501.28;;;20.13;88.03
5814;BME280;2933;52.302;8.134;2023-07-13T08:55:58;100495.47;;;19.91;87.01
5814;BME280;2933;52.302;8.134;2023-07-13T09:01:06;100494.28;;;20.12;87.78
5814;BME280;2933;52.302;8.134;2023-07-13T09:06:13;100501.63;;;19.92;87.29
5814;BME280;2933;52.302;8.134;2023-07-13T09:11:30;100499.75;;;19.74;84.17
5814;BME280;2933;52.302;8.134;2023-07-13T09:16:35;100510.38;;;20.45;82.54
5814;BME280;2933;52.302;8.134;2023-07-13T09:21:41;100514.41;;;20.49;80.57
5814;BME280;2933;52.302;8.134;2023-07-13T09:26:45;100503.56;;;20.34;79.81
5814;BME280;2933;52.302;8.134;2023-07-13T09:31:52;100505.19;;;20.70;80.31
5814;BME280;2933;52.302;8.134;2023-07-13T09:36:55;100495.25;;;21.14;77.21
5814;BME280;2933;52.302;8.134;2023-07-13T09:42:03;100515.91;;;21.45;77.93
5814;BME280;2933;52.302;8.134;2023-07-13T09:47:16;100513.59;;;20.83;76.70
5814;BME280;2933;52.302;8.134;2023-07-13T09:52:18;100516.44;;;20.02;79.29
5814;BME280;2933;52.302;8.134;2023-07-13T09:57:23;100519.66;;;20.14;79.92
5814;BME280;2933;52.302;8.134;2023-07-13T10:02:28;100517.00;;;21.18;74.61
5814;BME280;2933;52.302;8.134;2023-07-13T10:07:30;100516.19;;;20.75;77.37
5814;BME280;2933;52.302;8.134;2023-07-13T10:12:36;100519.88;;;20.74;77.53
5814;BME280;2933;52.302;8.134;2023-07-13T10:17:39;100514.41;;;21.35;74.04
5814;BME280;2933;52.302;8.134;2023-07-13T10:22:45;100517.63;;;20.95;73.45
5814;BME280;2933;52.302;8.134;2023-07-13T10:27:52;100526.47;;;21.21;75.77
5814;BME280;2933;52.302;8.134;2023-07-13T10:32:58;100527.94;;;21.07;73.16
5814;BME280;2933;52.302;8.134;2023-07-13T10:38:03;100526.56;;;20.94;76.10
5814;BME280;2933;52.302;8.134;2023-07-13T10:43:14;100523.47;;;21.15;75.12
5814;BME280;2933;52.302;8.134;2023-07-13T10:48:18;100542.22;;;20.71;74.66
5814;BME280;2933;52.302;8.134;2023-07-13T10:53:22;100536.88;;;20.63;75.88
5814;BME280;2933;52.302;8.134;2023-07-13T10:58:33;100538.88;;;20.95;75.37
5814;BME280;2933;52.302;8.134;2023-07-13T11:03:37;100539.94;;;20.50;75.34
5814;BME280;2933;52.302;8.134;2023-07-13T11:08:52;100546.13;;;20.32;77.65
5814;BME280;2933;52.302;8.134;2023-07-13T11:13:59;100542.22;;;20.71;78.35
5814;BME280;2933;52.302;8.134;2023-07-13T11:19:24;100535.16;;;21.39;74.99
5814;BME280;2933;52.302;8.134;2023-07-13T11:24:29;100540.53;;;20.96;75.99
5814;BME280;2933;52.302;8.134;2023-07-13T11:29:37;100537.66;;;21.49;71.58
5814;BME280;2933;52.302;8.134;2023-07-13T11:34:39;100543.06;;;22.07;68.13
5814;BME280;2933;52.302;8.134;2023-07-13T11:39:42;100542.16;;;22.56;65.94
5814;BME280;2933;52.302;8.134;2023-07-13T11:44:48;100540.19;;;23.29;61.72
5814;BME280;2933;52.302;8.134;2023-07-13T11:49:52;100538.44;;;22.73;61.50
5814;BME280;2933;52.302;8.134;2023-07-13T11:54:57;100552.91;;;22.71;61.30
5814;BME280;2933;52.302;8.134;2023-07-13T12:00:11;100546.44;;;23.05;62.69
5814;BME280;2933;52.302;8.134;2023-07-13T12:05:17;100549.00;;;23.30;60.42
5814;BME280;2933;52.302;8.134;2023-07-13T12:10:20;100551.06;;;22.80;60.73
5814;BME280;2933;52.302;8.134;2023-07-13T12:15:30;100559.84;;;21.91;63.51
5814;BME280;2933;52.302;8.134;2023-07-13T12:20:38;100545.00;;;22.46;63.92
5814;BME280;2933;52.302;8.134;2023-07-13T12:25:40;100563.13;;;22.51;63.40
5814;BME280;2933;52.302;8.134;2023-07-13T12:30:48;100556.69;;;21.87;62.17
5814;BME280;2933;52.302;8.134;2023-07-13T12:35:51;100565.47;;;21.63;62.09
5814;BME280;2933;52.302;8.134;2023-07-13T12:40:53;100571.34;;;21.32;63.78
5814;BME280;2933;52.302;8.134;2023-07-13T12:45:59;100607.16;;;21.20;64.65
5814;BME280;2933;52.302;8.134;2023-07-13T12:51:02;100613.09;;;19.44;73.69
5814;BME280;2933;52.302;8.134;2023-07-13T12:56:03;100650.47;;;18.46;96.99
5814;BME280;2933;52.302;8.134;2023-07-13T13:01:07;100672.59;;;17.46;100.00
5814;BME280;2933;52.302;8.134;2023-07-13T13:06:22;100667.53;;;17.33;100.00
5814;BME280;2933;52.302;8.134;2023-07-13T13:11:26;100662.28;;;17.42;100.00
5814;BME280;2933;52.302;8.134;2023-07-13T13:16:31;100647.34;;;17.82;100.00
5814;BME280;2933;52.302;8.134;2023-07-13T13:21:33;100639.28;;;18.62;100.00
5814;BME280;2933;52.302;8.134;2023-07-13T13:26:35;100649.09;;;18.13;100.00
5814;BME280;2933;52.302;8.134;2023-07-13T13:31:38;100650.53;;;18.94;100.00
5814;BME280;2933;52.302;8.134;2023-07-13T13:36:40;100655.91;;;19.67;100.00
5814;BME280;2933;52.302;8.134;2023-07-13T13:41:42;100663.28;;;19.74;100.00
5814;BME280;2933;52.302;8.134;2023-07-13T13:46:46;100658.28;;;19.43;100.00
5814;BME280;2933;52.302;8.134;2023-07-13T13:51:49;100665.69;;;19.39;100.00
5814;BME280;2933;52.302;8.134;2023-07-13T13:56:52;100687.84;;;19.00;100.00
5814;BME280;2933;52.302;8.134;2023-07-13T14:01:55;100686.91;;;18.72;100.00
5814;BME280;2933;52.302;8.134;2023-07-13T14:07:00;100694.47;;;18.28;100.00
5814;BME280;2933;52.302;8.134;2023-07-13T14:12:03;100690.97;;;18.37;100.00
5814;BME280;2933;52.302;8.134;2023-07-13T14:17:18;100678.56;;;18.57;100.00
5814;BME280;2933;52.302;8.134;2023-07-13T14:22:21;100675.81;;;18.39;100.00
5814;BME280;2933;52.302;8.134;2023-07-13T14:27:24;100671.56;;;18.76;100.00
5814;BME280;2933;52.302;8.134;2023-07-13T14:32:27;100672.16;;;18.69;100.00
5814;BME280;2933;52.302;8.134;2023-07-13T14:37:29;100684.25;;;18.82;100.00
5814;BME280;2933;52.302;8.134;2023-07-13T14:42:30;100685.84;;;19.22;100.00
5814;BME280;2933;52.302;8.134;2023-07-13T14:47:33;100688.41;;;19.04;100.00
5814;BME280;2933;52.302;8.134;2023-07-13T14:52:35;100687.84;;;19.00;100.00
5814;BME280;2933;52.302;8.134;2023-07-13T14:57:36;100680.38;;;19.33;100.00
5814;BME280;2933;52.302;8.134;2023-07-13T15:02:40;100661.38;;;19.00;100.00
5814;BME280;2933;52.302;8.134;2023-07-13T15:07:41;100663.25;;;19.18;100.00
5814;BME280;2933;52.302;8.134;2023-07-13T15:12:43;100670.03;;;19.02;100.00
5814;BME280;2933;52.302;8.134;2023-07-13T15:17:47;100669.47;;;18.99;100.00
5814;BME280;2933;52.302;8.134;2023-07-13T15:22:49;100675.00;;;19.05;100.00
5814;BME280;2933;52.302;8.134;2023-07-13T15:27:51;100675.09;;;19.24;100.00
5814;BME280;2933;52.302;8.134;2023-07-13T15:32:55;100665.72;;;19.29;100.00
5814;BME280;2933;52.302;8.134;2023-07-13T15:37:58;100663.97;;;19.48;100.00
5814;BME280;2933;52.302;8.134;2023-07-13T15:42:59;100659.47;;;19.58;100.00
5814;BME280;2933;52.302;8.134;2023-07-13T15:48:02;100654.00;;;19.60;100.00
5814;BME280;2933;52.302;8.134;2023-07-13T15:53:04;100657.88;;;19.37;100.00
5814;BME280;2933;52.302;8.134;2023-07-13T15:58:09;100656.31;;;19.45;100.00
5814;BME280;2933;52.302;8.134;2023-07-13T16:03:16;100652.53;;;19.47;100.00
5814;BME280;2933;52.302;8.134;2023-07-13T16:08:23;100651.81;;;20.01;100.00
5814;BME280;2933;52.302;8.134;2023-07-13T16:13:25;100647.56;;;20.71;100.00
5814;BME280;2933;52.302;8.134;2023-07-13T16:18:28;100646.75;;;20.52;100.00
5814;BME280;2933;52.302;8.134;2023-07-13T16:23:31;100651.25;;;20.52;100.00
5814;BME280;2933;52.302;8.134;2023-07-13T16:28:33;100649.66;;;20.23;100.00
5814;BME280;2933;52.302;8.134;2023-07-13T16:33:36;100657.78;;;20.39;99.60
5814;BME280;2933;52.302;8.134;2023-07-13T16:38:38;100659.28;;;20.42;96.03
5814;BME280;2933;52.302;8.134;2023-07-13T16:43:39;100661.38;;;20.12;97.92
5814;BME280;2933;52.302;8.134;2023-07-13T16:48:43;100664.31;;;20.27;97.20
5814;BME280;2933;52.302;8.134;2023-07-13T16:53:44;100662.81;;;20.24;96.40
5814;BME280;2933;52.302;8.134;2023-07-13T16:58:46;100659.38;;;20.14;95.81
5814;BME280;2933;52.302;8.134;2023-07-13T17:03:49;100668.94;;;20.07;95.09
5814;BME280;2933;52.302;8.134;2023-07-13T17:09:00;100666.50;;;19.95;97.28
5814;BME280;2933;52.302;8.134;2023-07-13T17:14:12;100669.53;;;19.73;99.56
5814;BME280;2933;52.302;8.134;2023-07-13T17:19:17;100664.69;;;19.96;98.16
5814;BME280;2933;52.302;8.134;2023-07-13T17:24:21;100666.19;;;20.16;99.60
5814;BME280;2933;52.302;8.134;2023-07-13T17:29:24;100672.19;;;20.00;96.85
5814;BME280;2933;52.302;8.134;2023-07-13T17:34:27;100672.81;;;19.94;98.53
5814;BME280;2933;52.302;8.134;2023-07-13T17:39:29;100675.91;;;19.90;100.00
5814;BME280;2933;52.302;8.134;2023-07-13T17:44:30;100672.19;;;19.73;100.00
5814;BME280;2933;52.302;8.134;2023-07-13T17:49:33;100683.94;;;19.70;100.00
5814;BME280;2933;52.302;8.134;2023-07-13T17:54:35;100678.09;;;19.66;100.00
5814;BME280;2933;52.302;8.134;2023-07-13T17:59:37;100692.03;;;19.68;100.00
5814;BME280;2933;52.302;8.134;2023-07-13T18:04:40;100700.56;;;19.62;100.00
5814;BME280;2933;52.302;8.134;2023-07-13T18:09:41;100703.72;;;19.48;100.00
5814;BME280;2933;52.302;8.134;2023-07-13T18:14:46;100711.44;;;19.31;100.00
5814;BME280;2933;52.302;8.134;2023-07-13T18:19:49;100717.69;;;18.73;100.00
5814;BME280;2933;52.302;8.134;2023-07-13T18:24:51;100722.31;;;18.51;100.00
5814;BME280;2933;52.302;8.134;2023-07-13T18:29:53;100714.50;;;18.20;100.00
5814;BME280;2933;52.302;8.134;2023-07-13T18:34:57;100721.06;;;17.75;100.00
5814;BME280;2933;52.302;8.134;2023-07-13T18:39:59;100723.63;;;17.56;100.00
5814;BME280;2933;52.302;8.134;2023-07-13T18:45:00;100709.81;;;17.42;100.00
5814;BME280;2933;52.302;8.134;2023-07-13T18:50:12;100716.81;;;17.22;100.00
5814;BME280;2933;52.302;8.134;2023-07-13T18:55:18;100700.41;;;17.19;100.00
5814;BME280;2933;52.302;8.134;2023-07-13T19:00:21;100701.53;;;17.26;100.00
5814;BME280;2933;52.302;8.134;2023-07-13T19:05:30;100712.50;;;17.21;100.00
5814;BME280;2933;52.302;8.134;2023-07-13T19:10:32;100706.63;;;17.18;100.00
5814;BME280;2933;52.302;8.134;2023-07-13T19:15:34;100701.25;;;17.29;100.00
5814;BME280;2933;52.302;8.134;2023-07-13T19:20:38;100713.78;;;17.27;100.00
5814;BME280;2933;52.302;8.134;2023-07-13T19:25:40;100710.03;;;17.30;100.00
5814;BME280;2933;52.302;8.134;2023-07-13T19:30:42;100719.66;;;17.40;100.00
5814;BME280;2933;52.302;8.134;2023-07-13T19:35:45;100721.03;;;17.35;100.00
5814;BME280;2933;52.302;8.134;2023-07-13T19:40:47;100721.94;;;17.24;100.00
5814;BME280;2933;52.302;8.134;2023-07-13T19:45:48;100727.88;;;17.16;100.00
5814;BME280;2933;52.302;8.134;2023-07-13T19:50:51;100724.16;;;17.19;100.00
5814;BME280;2933;52.302;8.134;2023-07-13T19:55:53;100735.03;;;17.04;100.00
5814;BME280;2933;52.302;8.134;2023-07-13T20:00:55;100741.16;;;17.26;100.00
5814;BME280;2933;52.302;8.134;2023-07-13T20:05:58;100751.38;;;17.19;100.00
5814;BME280;2933;52.302;8.134;2023-07-13T20:11:00;100754.88;;;17.20;100.00
5814;BME280;2933;52.302;8.134;2023-07-13T20:16:02;100756.34;;;17.12;100.00
5814;BME280;2933;52.302;8.134;2023-07-13T20:21:05;100758.28;;;17.10;100.00
5814;BME280;2933;52.302;8.134;2023-07-13T20:26:06;100759.13;;;17.11;100.00
5814;BME280;2933;52.302;8.134;2023-07-13T20:31:12;100763.56;;;17.10;100.00
5814;BME280;2933;52.302;8.134;2023-07-13T20:36:16;100763.47;;;17.22;100.00
5814;BME280;2933;52.302;8.134;2023-07-13T20:41:17;100771.09;;;17.15;100.00
5814;BME280;2933;52.302;8.134;2023-07-13T20:46:19;100760.22;;;17.08;100.00
5814;BME280;2933;52.302;8.134;2023-07-13T20:51:22;100767.75;;;16.80;100.00
5814;BME280;2933;52.302;8.134;2023-07-13T20:56:27;100769.56;;;16.80;100.00
5814;BME280;2933;52.302;8.134;2023-07-13T21:01:31;100773.59;;;16.63;100.00
5814;BME280;2933;52.302;8.134;2023-07-13T21:06:35;100771.41;;;16.68;100.00
5814;BME280;2933;52.302;8.134;2023-07-13T21:11:37;100767.28;;;16.54;100.00
5814;BME280;2933;52.302;8.134;2023-07-13T21:16:40;100770.88;;;16.53;100.00
5814;BME280;2933;52.302;8.134;2023-07-13T21:21:43;100773.69;;;16.40;100.00
5814;BME280;2933;52.302;8.134;2023-07-13T21:26:44;100773.44;;;16.32;100.00
5814;BME280;2933;52.302;8.134;2023-07-13T21:31:46;100772.22;;;16.47;100.00
5814;BME280;2933;52.302;8.134;2023-07-13T21:36:49;100775.72;;;16.37;100.00
5814;BME280;2933;52.302;8.134;2023-07-13T21:41:51;100778.91;;;16.52;100.00
5814;BME280;2933;52.302;8.134;2023-07-13T21:46:53;100780.41;;;16.33;100.00
5814;BME280;2933;52.302;8.134;2023-07-13T21:51:57;100784.59;;;16.36;100.00
5814;BME280;2933;52.302;8.134;2023-07-13T21:56:59;100782.91;;;16.35;100.00
5814;BME280;2933;52.302;8.134;2023-07-13T22:02:00;100780.75;;;16.28;100.00
5814;BME280;2933;52.302;8.134;2023-07-13T22:07:03;100775.91;;;16.01;100.00
5814;BME280;2933;52.302;8.134;2023-07-13T22:12:05;100783.47;;;15.83;100.00
5814;BME280;2933;52.302;8.134;2023-07-13T22:17:09;100771.03;;;15.85;100.00
5814;BME280;2933;52.302;8.134;2023-07-13T22:22:14;100780.81;;;15.72;100.00
5814;BME280;2933;52.302;8.134;2023-07-13T22:27:16;100778.06;;;15.50;100.00
5814;BME280;2933;52.302;8.134;2023-07-13T22:32:18;100776.47;;;15.37;100.00
5814;BME280;2933;52.302;8.134;2023-07-13T22:37:21;100776.13;;;15.41;100.00
5814;BME280;2933;52.302;8.134;2023-07-13T22:42:22;100775.28;;;15.52;100.00
5814;BME280;2933;52.302;8.134;2023-07-13T22:47:24;100770.03;;;15.52;100.00
5814;BME280;2933;52.302;8.134;2023-07-13T22:52:27;100766.78;;;15.26;100.00
5814;BME280;2933;52.302;8.134;2023-07-13T22:57:28;100781.47;;;15.17;100.00
5814;BME280;2933;52.302;8.134;2023-07-13T23:02:30;100769.09;;;14.95;100.00
5814;BME280;2933;52.302;8.134;2023-07-13T23:07:32;100774.00;;;14.99;100.00
5814;BME280;2933;52.302;8.134;2023-07-13T23:12:34;100772.91;;;14.91;100.00
5814;BME280;2933;52.302;8.134;2023-07-13T23:17:36;100772.44;;;14.97;100.00
5814;BME280;2933;52.302;8.134;2023-07-13T23:22:39;100768.59;;;14.90;100.00
5814;BME280;2933;52.302;8.134;2023-07-13T23:27:40;100778.00;;;14.81;100.00
5814;BME280;2933;52.302;8.134;2023-07-13T23:32:42;100773.53;;;14.70;100.00
5814;BME280;2933;52.302;8.134;2023-07-13T23:37:46;100760.19;;;14.60;100.00
5814;BME280;2933;52.302;8.134;2023-07-13T23:42:48;100763.91;;;14.58;100.00
5814;BME280;2933;52.302;8.134;2023-07-13T23:47:53;100764.09;;;14.54;100.00
5814;BME280;2933;52.302;8.134;2023-07-13T23:52:57;100764.34;;;14.51;100.00
5814;BME280;2933;52.302;8.134;2023-07-13T23:58:01;100755.09;;;14.46;100.00
